sensor_id;sensor_type;location;lat;lon;timestamp;temperature;humidity
69823;SHT31;57119;52.516;13.508;2022-12-07T00:01:27;2.85;99.99
69823;SHT31;57119;52.516;13.508;2022-12-07T00:03:54;2.85;99.99
69823;SHT31;57119;52.516;13.508;2022-12-07T00:06:22;2.80;99.99
69823;SHT31;57119;52.516;13.508;2022-12-07T00:08:48;2.83;99.99
69823;SHT31;57119;52.516;13.508;2022-12-07T00:11:19;2.83;99.99
69823;SHT31;57119;52.516;13.508;2022-12-07T00:13:45;2.77;99.99
69823;SHT31;57119;52.516;13.508;2022-12-07T00:16:15;2.78;99.99
69823;SHT31;57119;52.516;13.508;2022-12-07T00:18:41;2.74;99.99
69823;SHT31;57119;52.516;13.508;2022-12-07T00:21:13;2.77;99.99
69823;SHT31;57119;52.516;13.508;2022-12-07T00:23:43;2.81;99.99
69823;SHT31;57119;52.516;13.508;2022-12-07T00:26:12;2.78;99.99
69823;SHT31;57119;52.516;13.508;2022-12-07T00:28:41;2.76;99.99
69823;SHT31;57119;52.516;13.508;2022-12-07T00:31:09;2.70;99.99
69823;SHT31;57119;52.516;13.508;2022-12-07T00:33:38;2.67;99.99
69823;SHT31;57119;52.516;13.508;2022-12-07T00:36:07;2.58;99.61
69823;SHT31;57119;52.516;13.508;2022-12-07T00:38:35;2.54;99.49
69823;SHT31;57119;52.516;13.508;2022-12-07T00:41:04;2.53;99.44
69823;SHT31;57119;52.516;13.508;2022-12-07T00:43:33;2.53;99.12
69823;SHT31;57119;52.516;13.508;2022-12-07T00:45:58;2.49;98.18
69823;SHT31;57119;52.516;13.508;2022-12-07T00:48:24;2.46;98.09
69823;SHT31;57119;52.516;13.508;2022-12-07T00:50:50;2.40;98.44
69823;SHT31;57119;52.516;13.508;2022-12-07T00:53:16;2.46;97.73
69823;SHT31;57119;52.516;13.508;2022-12-07T00:55:42;2.44;97.73
69823;SHT31;57119;52.516;13.508;2022-12-07T00:58:08;2.46;97.77
69823;SHT31;57119;52.516;13.508;2022-12-07T01:00:36;2.41;97.68
69823;SHT31;57119;52.516;13.508;2022-12-07T01:03:03;2.43;98.14
69823;SHT31;57119;52.516;13.508;2022-12-07T01:05:29;2.37;97.65
69823;SHT31;57119;52.516;13.508;2022-12-07T01:07:54;2.32;96.46
69823;SHT31;57119;52.516;13.508;2022-12-07T01:10:20;2.25;96.59
69823;SHT31;57119;52.516;13.508;2022-12-07T01:12:51;2.15;97.30
69823;SHT31;57119;52.516;13.508;2022-12-07T01:15:17;2.06;97.91
69823;SHT31;57119;52.516;13.508;2022-12-07T01:17:42;2.01;98.28
69823;SHT31;57119;52.516;13.508;2022-12-07T01:20:08;1.98;98.43
69823;SHT31;57119;52.516;13.508;2022-12-07T01:22:38;1.94;98.69
69823;SHT31;57119;52.516;13.508;2022-12-07T01:25:12;1.89;98.23
69823;SHT31;57119;52.516;13.508;2022-12-07T01:27:38;1.94;98.17
69823;SHT31;57119;52.516;13.508;2022-12-07T01:30:05;1.98;97.94
69823;SHT31;57119;52.516;13.508;2022-12-07T01:32:34;2.03;97.79
69823;SHT31;57119;52.516;13.508;2022-12-07T01:35:00;2.03;97.75
69823;SHT31;57119;52.516;13.508;2022-12-07T01:37:25;2.06;97.53
69823;SHT31;57119;52.516;13.508;2022-12-07T01:39:51;2.10;97.36
69823;SHT31;57119;52.516;13.508;2022-12-07T01:42:17;2.10;97.12
69823;SHT31;57119;52.516;13.508;2022-12-07T01:47:52;2.12;96.60
69823;SHT31;57119;52.516;13.508;2022-12-07T01:50:24;2.05;97.53
69823;SHT31;57119;52.516;13.508;2022-12-07T01:52:53;2.09;96.97
69823;SHT31;57119;52.516;13.508;2022-12-07T01:55:27;2.12;97.30
69823;SHT31;57119;52.516;13.508;2022-12-07T01:57:54;2.18;96.44
69823;SHT31;57119;52.516;13.508;2022-12-07T02:00:20;2.16;96.56
69823;SHT31;57119;52.516;13.508;2022-12-07T02:02:50;2.19;96.69
69823;SHT31;57119;52.516;13.508;2022-12-07T02:05:21;2.18;96.40
69823;SHT31;57119;52.516;13.508;2022-12-07T02:07:59;2.18;96.04
69823;SHT31;57119;52.516;13.508;2022-12-07T02:10:30;2.20;95.41
69823;SHT31;57119;52.516;13.508;2022-12-07T02:13:01;2.18;95.53
69823;SHT31;57119;52.516;13.508;2022-12-07T02:29:24;2.16;95.85
69823;SHT31;57119;52.516;13.508;2022-12-07T02:32:39;2.13;95.93
69823;SHT31;57119;52.516;13.508;2022-12-07T02:35:28;2.10;95.56
69823;SHT31;57119;52.516;13.508;2022-12-07T02:40:44;2.03;95.58
69823;SHT31;57119;52.516;13.508;2022-12-07T02:43:23;2.01;95.74
69823;SHT31;57119;52.516;13.508;2022-12-07T02:45:51;1.98;96.07
69823;SHT31;57119;52.516;13.508;2022-12-07T02:48:18;1.89;96.45
69823;SHT31;57119;52.516;13.508;2022-12-07T02:50:52;1.89;96.77
69823;SHT31;57119;52.516;13.508;2022-12-07T02:53:31;1.85;97.14
69823;SHT31;57119;52.516;13.508;2022-12-07T02:55:59;1.79;97.62
69823;SHT31;57119;52.516;13.508;2022-12-07T02:59:05;1.77;97.78
69823;SHT31;57119;52.516;13.508;2022-12-07T03:06:53;1.79;98.25
69823;SHT31;57119;52.516;13.508;2022-12-07T03:09:33;1.75;98.53
69823;SHT31;57119;52.516;13.508;2022-12-07T03:12:10;1.77;98.74
69823;SHT31;57119;52.516;13.508;2022-12-07T03:15:00;1.81;98.64
69823;SHT31;57119;52.516;13.508;2022-12-07T03:17:28;1.77;98.72
69823;SHT31;57119;52.516;13.508;2022-12-07T03:19:59;1.72;98.70
69823;SHT31;57119;52.516;13.508;2022-12-07T03:22:31;1.71;98.73
69823;SHT31;57119;52.516;13.508;2022-12-07T03:25:05;1.71;98.95
69823;SHT31;57119;52.516;13.508;2022-12-07T03:27:36;1.78;98.69
69823;SHT31;57119;52.516;13.508;2022-12-07T03:30:10;1.77;98.79
69823;SHT31;57119;52.516;13.508;2022-12-07T03:32:48;1.71;99.58
69823;SHT31;57119;52.516;13.508;2022-12-07T03:35:31;1.81;99.16
69823;SHT31;57119;52.516;13.508;2022-12-07T03:38:10;1.78;99.28
69823;SHT31;57119;52.516;13.508;2022-12-07T03:40:49;1.75;99.53
69823;SHT31;57119;52.516;13.508;2022-12-07T03:43:18;1.72;99.74
69823;SHT31;57119;52.516;13.508;2022-12-07T03:48:59;1.67;99.57
69823;SHT31;57119;52.516;13.508;2022-12-07T03:51:45;1.62;99.97
69823;SHT31;57119;52.516;13.508;2022-12-07T03:54:26;1.55;99.99
69823;SHT31;57119;52.516;13.508;2022-12-07T03:56:54;1.58;99.99
69823;SHT31;57119;52.516;13.508;2022-12-07T03:59:21;1.58;99.99
69823;SHT31;57119;52.516;13.508;2022-12-07T04:01:59;1.57;99.99
69823;SHT31;57119;52.516;13.508;2022-12-07T04:04:27;1.68;99.99
69823;SHT31;57119;52.516;13.508;2022-12-07T04:06:53;1.68;99.99
69823;SHT31;57119;52.516;13.508;2022-12-07T04:09:19;1.71;99.99
69823;SHT31;57119;52.516;13.508;2022-12-07T04:11:48;1.67;99.99
69823;SHT31;57119;52.516;13.508;2022-12-07T04:14:13;1.70;99.99
69823;SHT31;57119;52.516;13.508;2022-12-07T04:16:52;1.64;99.99
69823;SHT31;57119;52.516;13.508;2022-12-07T04:19:26;1.64;99.99
69823;SHT31;57119;52.516;13.508;2022-12-07T04:21:53;1.62;99.99
69823;SHT31;57119;52.516;13.508;2022-12-07T04:24:18;1.65;99.99
69823;SHT31;57119;52.516;13.508;2022-12-07T04:26:45;1.58;99.99
69823;SHT31;57119;52.516;13.508;2022-12-07T04:29:10;1.62;99.99
69823;SHT31;57119;52.516;13.508;2022-12-07T04:31:36;1.65;99.99
69823;SHT31;57119;52.516;13.508;2022-12-07T04:34:02;1.62;99.99
69823;SHT31;57119;52.516;13.508;2022-12-07T04:36:28;1.52;99.99
69823;SHT31;57119;52.516;13.508;2022-12-07T04:38:54;1.54;99.99
69823;SHT31;57119;52.516;13.508;2022-12-07T04:41:21;1.57;99.99
69823;SHT31;57119;52.516;13.508;2022-12-07T04:44:00;1.55;99.99
69823;SHT31;57119;52.516;13.508;2022-12-07T04:46:27;1.57;99.99
69823;SHT31;57119;52.516;13.508;2022-12-07T04:49:00;1.51;99.99
69823;SHT31;57119;52.516;13.508;2022-12-07T04:51:28;1.54;99.99
69823;SHT31;57119;52.516;13.508;2022-12-07T04:53:57;1.48;99.99
69823;SHT31;57119;52.516;13.508;2022-12-07T04:56:23;1.55;99.99
69823;SHT31;57119;52.516;13.508;2022-12-07T04:58:50;1.58;99.99
69823;SHT31;57119;52.516;13.508;2022-12-07T05:01:20;1.61;99.99
69823;SHT31;57119;52.516;13.508;2022-12-07T05:03:46;1.58;99.99
69823;SHT31;57119;52.516;13.508;2022-12-07T05:06:15;1.64;99.99
69823;SHT31;57119;52.516;13.508;2022-12-07T05:08:43;1.72;99.99
69823;SHT31;57119;52.516;13.508;2022-12-07T05:11:10;1.78;99.99
69823;SHT31;57119;52.516;13.508;2022-12-07T05:13:56;1.78;99.99
69823;SHT31;57119;52.516;13.508;2022-12-07T05:16:21;1.83;99.99
69823;SHT31;57119;52.516;13.508;2022-12-07T05:18:47;1.81;99.99
69823;SHT31;57119;52.516;13.508;2022-12-07T05:21:12;1.81;99.99
69823;SHT31;57119;52.516;13.508;2022-12-07T05:23:38;1.81;99.99
69823;SHT31;57119;52.516;13.508;2022-12-07T05:26:03;1.81;99.99
69823;SHT31;57119;52.516;13.508;2022-12-07T05:28:32;1.83;99.99
69823;SHT31;57119;52.516;13.508;2022-12-07T05:31:07;1.88;99.99
69823;SHT31;57119;52.516;13.508;2022-12-07T05:33:32;1.86;99.99
69823;SHT31;57119;52.516;13.508;2022-12-07T05:35:58;1.94;99.99
69823;SHT31;57119;52.516;13.508;2022-12-07T05:38:24;1.94;99.99
69823;SHT31;57119;52.516;13.508;2022-12-07T05:41:00;1.97;99.99
69823;SHT31;57119;52.516;13.508;2022-12-07T05:43:27;1.97;99.99
69823;SHT31;57119;52.516;13.508;2022-12-07T05:45:52;2.01;99.99
69823;SHT31;57119;52.516;13.508;2022-12-07T05:48:17;2.06;99.99
69823;SHT31;57119;52.516;13.508;2022-12-07T05:50:43;2.08;99.99
69823;SHT31;57119;52.516;13.508;2022-12-07T05:53:09;2.12;99.99
69823;SHT31;57119;52.516;13.508;2022-12-07T05:55:34;2.15;99.99
69823;SHT31;57119;52.516;13.508;2022-12-07T05:58:00;2.19;99.99
69823;SHT31;57119;52.516;13.508;2022-12-07T06:00:48;2.22;99.99
69823;SHT31;57119;52.516;13.508;2022-12-07T06:03:14;2.28;99.99
69823;SHT31;57119;52.516;13.508;2022-12-07T06:05:40;2.32;99.99
69823;SHT31;57119;52.516;13.508;2022-12-07T06:08:07;2.32;99.99
69823;SHT31;57119;52.516;13.508;2022-12-07T06:10:40;2.34;99.99
69823;SHT31;57119;52.516;13.508;2022-12-07T06:13:10;2.36;99.99
69823;SHT31;57119;52.516;13.508;2022-12-07T06:15:36;2.41;99.99
69823;SHT31;57119;52.516;13.508;2022-12-07T06:18:02;2.41;99.99
69823;SHT31;57119;52.516;13.508;2022-12-07T06:20:30;2.50;99.99
69823;SHT31;57119;52.516;13.508;2022-12-07T06:22:56;2.51;99.99
69823;SHT31;57119;52.516;13.508;2022-12-07T06:25:24;2.56;99.99
69823;SHT31;57119;52.516;13.508;2022-12-07T06:27:52;2.60;99.99
69823;SHT31;57119;52.516;13.508;2022-12-07T06:30:20;2.58;99.99
69823;SHT31;57119;52.516;13.508;2022-12-07T06:32:46;2.60;99.99
69823;SHT31;57119;52.516;13.508;2022-12-07T06:35:14;2.70;99.99
69823;SHT31;57119;52.516;13.508;2022-12-07T06:37:39;2.62;99.99
69823;SHT31;57119;52.516;13.508;2022-12-07T06:40:06;2.65;99.99
69823;SHT31;57119;52.516;13.508;2022-12-07T06:42:37;2.62;99.99
69823;SHT31;57119;52.516;13.508;2022-12-07T06:45:06;2.67;99.99
69823;SHT31;57119;52.516;13.508;2022-12-07T06:47:32;2.65;99.99
69823;SHT31;57119;52.516;13.508;2022-12-07T06:49:57;2.71;99.99
69823;SHT31;57119;52.516;13.508;2022-12-07T06:52:23;2.74;99.99
69823;SHT31;57119;52.516;13.508;2022-12-07T06:54:55;2.78;99.99
69823;SHT31;57119;52.516;13.508;2022-12-07T06:57:20;2.78;99.99
69823;SHT31;57119;52.516;13.508;2022-12-07T06:59:51;2.83;99.99
69823;SHT31;57119;52.516;13.508;2022-12-07T07:02:29;2.92;99.99
69823;SHT31;57119;52.516;13.508;2022-12-07T07:05:00;2.91;99.99
69823;SHT31;57119;52.516;13.508;2022-12-07T07:07:49;2.99;99.99
69823;SHT31;57119;52.516;13.508;2022-12-07T07:10:16;3.02;99.99
69823;SHT31;57119;52.516;13.508;2022-12-07T07:12:41;3.09;99.99
69823;SHT31;57119;52.516;13.508;2022-12-07T07:15:07;3.11;99.99
69823;SHT31;57119;52.516;13.508;2022-12-07T07:17:41;3.19;99.99
69823;SHT31;57119;52.516;13.508;2022-12-07T07:20:07;3.22;99.99
69823;SHT31;57119;52.516;13.508;2022-12-07T07:22:39;3.25;99.99
69823;SHT31;57119;52.516;13.508;2022-12-07T07:25:11;3.33;99.99
69823;SHT31;57119;52.516;13.508;2022-12-07T07:27:42;3.37;99.99
69823;SHT31;57119;52.516;13.508;2022-12-07T07:30:11;3.42;99.99
69823;SHT31;57119;52.516;13.508;2022-12-07T07:32:37;3.47;99.99
69823;SHT31;57119;52.516;13.508;2022-12-07T07:35:03;3.49;99.99
69823;SHT31;57119;52.516;13.508;2022-12-07T07:37:29;3.54;99.99
69823;SHT31;57119;52.516;13.508;2022-12-07T07:39:59;3.54;99.99
69823;SHT31;57119;52.516;13.508;2022-12-07T07:42:33;3.52;99.99
69823;SHT31;57119;52.516;13.508;2022-12-07T07:45:02;3.52;99.99
69823;SHT31;57119;52.516;13.508;2022-12-07T07:47:31;3.52;99.99
69823;SHT31;57119;52.516;13.508;2022-12-07T07:49:57;3.56;99.99
69823;SHT31;57119;52.516;13.508;2022-12-07T07:52:31;3.59;99.99
69823;SHT31;57119;52.516;13.508;2022-12-07T07:55:03;3.62;99.99
69823;SHT31;57119;52.516;13.508;2022-12-07T07:57:29;3.62;99.99
69823;SHT31;57119;52.516;13.508;2022-12-07T07:59:54;3.64;99.99
69823;SHT31;57119;52.516;13.508;2022-12-07T08:02:23;3.66;99.94
69823;SHT31;57119;52.516;13.508;2022-12-07T08:04:49;3.67;99.86
69823;SHT31;57119;52.516;13.508;2022-12-07T08:07:15;3.75;99.43
69823;SHT31;57119;52.516;13.508;2022-12-07T08:09:41;3.71;99.00
69823;SHT31;57119;52.516;13.508;2022-12-07T08:12:07;3.73;99.15
69823;SHT31;57119;52.516;13.508;2022-12-07T08:14:33;3.71;98.62
69823;SHT31;57119;52.516;13.508;2022-12-07T08:16:59;3.73;98.43
69823;SHT31;57119;52.516;13.508;2022-12-07T08:19:25;3.71;98.63
69823;SHT31;57119;52.516;13.508;2022-12-07T08:21:53;3.73;98.66
69823;SHT31;57119;52.516;13.508;2022-12-07T08:24:26;3.75;99.06
69823;SHT31;57119;52.516;13.508;2022-12-07T08:26:52;3.80;98.75
69823;SHT31;57119;52.516;13.508;2022-12-07T08:29:18;3.84;97.69
69823;SHT31;57119;52.516;13.508;2022-12-07T08:31:46;3.84;96.91
69823;SHT31;57119;52.516;13.508;2022-12-07T08:34:12;3.85;97.15
69823;SHT31;57119;52.516;13.508;2022-12-07T08:36:41;3.85;97.55
69823;SHT31;57119;52.516;13.508;2022-12-07T08:39:09;3.87;97.04
69823;SHT31;57119;52.516;13.508;2022-12-07T08:41:35;3.88;97.02
69823;SHT31;57119;52.516;13.508;2022-12-07T08:44:04;3.90;97.30
69823;SHT31;57119;52.516;13.508;2022-12-07T08:46:53;3.93;96.98
69823;SHT31;57119;52.516;13.508;2022-12-07T08:49:23;3.91;96.15
69823;SHT31;57119;52.516;13.508;2022-12-07T08:51:50;3.94;96.34
69823;SHT31;57119;52.516;13.508;2022-12-07T08:54:17;3.94;95.80
69823;SHT31;57119;52.516;13.508;2022-12-07T08:56:44;3.91;94.63
69823;SHT31;57119;52.516;13.508;2022-12-07T08:59:15;3.93;95.16
69823;SHT31;57119;52.516;13.508;2022-12-07T09:01:42;3.95;94.75
69823;SHT31;57119;52.516;13.508;2022-12-07T09:04:13;4.02;94.38
69823;SHT31;57119;52.516;13.508;2022-12-07T09:06:41;4.04;93.81
69823;SHT31;57119;52.516;13.508;2022-12-07T09:09:07;4.12;93.42
69823;SHT31;57119;52.516;13.508;2022-12-07T09:11:36;4.05;92.50
69823;SHT31;57119;52.516;13.508;2022-12-07T09:14:02;4.05;92.51
69823;SHT31;57119;52.516;13.508;2022-12-07T09:16:28;4.06;92.32
69823;SHT31;57119;52.516;13.508;2022-12-07T09:18:59;4.19;91.70
69823;SHT31;57119;52.516;13.508;2022-12-07T09:21:24;4.35;91.13
69823;SHT31;57119;52.516;13.508;2022-12-07T09:23:50;4.33;90.42
69823;SHT31;57119;52.516;13.508;2022-12-07T09:26:16;4.16;91.38
69823;SHT31;57119;52.516;13.508;2022-12-07T09:28:45;4.11;90.66
69823;SHT31;57119;52.516;13.508;2022-12-07T09:31:13;4.16;91.05
69823;SHT31;57119;52.516;13.508;2022-12-07T09:33:45;4.08;90.82
69823;SHT31;57119;52.516;13.508;2022-12-07T09:36:10;3.90;89.54
69823;SHT31;57119;52.516;13.508;2022-12-07T09:38:36;3.83;89.54
69823;SHT31;57119;52.516;13.508;2022-12-07T09:41:06;3.78;89.46
69823;SHT31;57119;52.516;13.508;2022-12-07T09:43:36;3.85;89.98
69823;SHT31;57119;52.516;13.508;2022-12-07T09:46:04;3.80;88.97
69823;SHT31;57119;52.516;13.508;2022-12-07T09:48:34;3.67;89.25
69823;SHT31;57119;52.516;13.508;2022-12-07T09:51:02;3.78;89.86
69823;SHT31;57119;52.516;13.508;2022-12-07T09:53:33;3.78;88.96
69823;SHT31;57119;52.516;13.508;2022-12-07T09:56:02;3.75;89.17
69823;SHT31;57119;52.516;13.508;2022-12-07T09:58:30;3.67;89.68
69823;SHT31;57119;52.516;13.508;2022-12-07T10:01:05;3.64;89.57
69823;SHT31;57119;52.516;13.508;2022-12-07T10:03:31;3.60;90.02
69823;SHT31;57119;52.516;13.508;2022-12-07T10:05:57;3.62;90.09
69823;SHT31;57119;52.516;13.508;2022-12-07T10:08:25;3.60;89.92
69823;SHT31;57119;52.516;13.508;2022-12-07T10:10:54;3.59;89.92
69823;SHT31;57119;52.516;13.508;2022-12-07T10:13:34;3.56;89.65
69823;SHT31;57119;52.516;13.508;2022-12-07T10:16:00;3.62;89.86
69823;SHT31;57119;52.516;13.508;2022-12-07T10:18:42;3.71;89.63
69823;SHT31;57119;52.516;13.508;2022-12-07T10:21:10;3.70;89.52
69823;SHT31;57119;52.516;13.508;2022-12-07T10:23:42;3.70;89.66
69823;SHT31;57119;52.516;13.508;2022-12-07T10:29:39;3.94;88.97
69823;SHT31;57119;52.516;13.508;2022-12-07T10:34:41;4.42;87.72
69823;SHT31;57119;52.516;13.508;2022-12-07T10:39:45;4.97;84.41
69823;SHT31;57119;52.516;13.508;2022-12-07T10:42:19;5.83;82.90
69823;SHT31;57119;52.516;13.508;2022-12-07T10:44:47;7.21;79.64
69823;SHT31;57119;52.516;13.508;2022-12-07T10:47:36;8.21;74.53
69823;SHT31;57119;52.516;13.508;2022-12-07T10:50:27;8.12;74.76
69823;SHT31;57119;52.516;13.508;2022-12-07T10:53:07;6.46;79.37
69823;SHT31;57119;52.516;13.508;2022-12-07T11:01:14;6.13;82.27
69823;SHT31;57119;52.516;13.508;2022-12-07T11:12:52;4.60;86.68
69823;SHT31;57119;52.516;13.508;2022-12-07T11:18:00;4.22;88.22
69823;SHT31;57119;52.516;13.508;2022-12-07T11:20:56;4.18;88.72
69823;SHT31;57119;52.516;13.508;2022-12-07T11:27:20;4.28;88.77
69823;SHT31;57119;52.516;13.508;2022-12-07T11:32:13;4.04;89.12
69823;SHT31;57119;52.516;13.508;2022-12-07T11:37:13;4.11;89.66
69823;SHT31;57119;52.516;13.508;2022-12-07T11:39:47;3.98;89.26
69823;SHT31;57119;52.516;13.508;2022-12-07T11:42:27;4.18;89.45
69823;SHT31;57119;52.516;13.508;2022-12-07T11:45:02;4.24;89.03
69823;SHT31;57119;52.516;13.508;2022-12-07T11:47:47;4.24;89.47
69823;SHT31;57119;52.516;13.508;2022-12-07T11:55:47;4.21;89.53
69823;SHT31;57119;52.516;13.508;2022-12-07T12:06:32;4.24;89.64
69823;SHT31;57119;52.516;13.508;2022-12-07T12:22:43;4.63;88.57
69823;SHT31;57119;52.516;13.508;2022-12-07T12:26:21;4.60;88.40
69823;SHT31;57119;52.516;13.508;2022-12-07T12:28:41;4.59;88.77
69823;SHT31;57119;52.516;13.508;2022-12-07T12:31:35;4.49;89.22
69823;SHT31;57119;52.516;13.508;2022-12-07T12:34:41;4.50;89.32
69823;SHT31;57119;52.516;13.508;2022-12-07T12:42:47;4.46;90.11
69823;SHT31;57119;52.516;13.508;2022-12-07T12:45:24;4.36;90.49
69823;SHT31;57119;52.516;13.508;2022-12-07T12:52:58;4.38;90.20
69823;SHT31;57119;52.516;13.508;2022-12-07T12:56:33;4.36;89.85
69823;SHT31;57119;52.516;13.508;2022-12-07T12:58:34;4.36;89.96
69823;SHT31;57119;52.516;13.508;2022-12-07T13:04:01;4.41;90.33
69823;SHT31;57119;52.516;13.508;2022-12-07T13:08:56;4.43;90.66
69823;SHT31;57119;52.516;13.508;2022-12-07T13:11:40;4.42;90.06
69823;SHT31;57119;52.516;13.508;2022-12-07T13:19:55;4.42;90.22
69823;SHT31;57119;52.516;13.508;2022-12-07T13:25:05;4.43;90.62
69823;SHT31;57119;52.516;13.508;2022-12-07T13:27:33;4.56;90.20
69823;SHT31;57119;52.516;13.508;2022-12-07T13:30:00;4.56;90.45
69823;SHT31;57119;52.516;13.508;2022-12-07T13:32:28;4.56;90.08
69823;SHT31;57119;52.516;13.508;2022-12-07T13:34:55;4.54;90.37
69823;SHT31;57119;52.516;13.508;2022-12-07T13:37:29;4.52;90.75
69823;SHT31;57119;52.516;13.508;2022-12-07T13:39:57;4.53;90.64
69823;SHT31;57119;52.516;13.508;2022-12-07T13:42:33;4.50;90.50
69823;SHT31;57119;52.516;13.508;2022-12-07T13:45:01;4.49;90.89
69823;SHT31;57119;52.516;13.508;2022-12-07T13:50:48;4.50;91.32
69823;SHT31;57119;52.516;13.508;2022-12-07T13:52:47;4.49;91.34
69823;SHT31;57119;52.516;13.508;2022-12-07T13:55:15;4.46;90.54
69823;SHT31;57119;52.516;13.508;2022-12-07T13:57:47;4.41;90.97
69823;SHT31;57119;52.516;13.508;2022-12-07T14:00:21;4.42;90.98
69823;SHT31;57119;52.516;13.508;2022-12-07T14:05:38;4.42;89.74
69823;SHT31;57119;52.516;13.508;2022-12-07T14:08:22;4.41;90.55
69823;SHT31;57119;52.516;13.508;2022-12-07T14:13:30;4.43;91.00
69823;SHT31;57119;52.516;13.508;2022-12-07T14:15:59;4.42;91.07
69823;SHT31;57119;52.516;13.508;2022-12-07T14:21:14;4.36;91.40
69823;SHT31;57119;52.516;13.508;2022-12-07T14:24:02;4.35;91.67
69823;SHT31;57119;52.516;13.508;2022-12-07T14:26:27;4.41;91.34
69823;SHT31;57119;52.516;13.508;2022-12-07T14:29:42;4.39;91.19
69823;SHT31;57119;52.516;13.508;2022-12-07T14:32:28;4.36;90.66
69823;SHT31;57119;52.516;13.508;2022-12-07T14:35:14;4.33;90.58
69823;SHT31;57119;52.516;13.508;2022-12-07T14:37:42;4.25;91.14
69823;SHT31;57119;52.516;13.508;2022-12-07T14:40:16;4.18;91.55
69823;SHT31;57119;52.516;13.508;2022-12-07T14:42:43;4.15;91.18
69823;SHT31;57119;52.516;13.508;2022-12-07T14:45:19;4.06;91.79
69823;SHT31;57119;52.516;13.508;2022-12-07T14:47:45;4.08;91.96
69823;SHT31;57119;52.516;13.508;2022-12-07T14:50:19;4.04;92.32
69823;SHT31;57119;52.516;13.508;2022-12-07T14:52:56;4.02;92.69
69823;SHT31;57119;52.516;13.508;2022-12-07T14:55:37;3.98;92.99
69823;SHT31;57119;52.516;13.508;2022-12-07T14:58:02;3.94;93.20
69823;SHT31;57119;52.516;13.508;2022-12-07T15:00:28;3.85;93.32
69823;SHT31;57119;52.516;13.508;2022-12-07T15:02:55;3.83;93.53
69823;SHT31;57119;52.516;13.508;2022-12-07T15:05:21;3.78;93.82
69823;SHT31;57119;52.516;13.508;2022-12-07T15:07:52;3.77;93.72
69823;SHT31;57119;52.516;13.508;2022-12-07T15:10:35;3.71;94.04
69823;SHT31;57119;52.516;13.508;2022-12-07T15:13:04;3.69;94.20
69823;SHT31;57119;52.516;13.508;2022-12-07T15:15:53;3.60;94.44
69823;SHT31;57119;52.516;13.508;2022-12-07T15:18:25;3.59;94.51
69823;SHT31;57119;52.516;13.508;2022-12-07T15:20:50;3.49;94.73
69823;SHT31;57119;52.516;13.508;2022-12-07T15:23:17;3.42;94.75
69823;SHT31;57119;52.516;13.508;2022-12-07T15:25:47;3.36;94.85
69823;SHT31;57119;52.516;13.508;2022-12-07T15:28:14;3.35;94.73
69823;SHT31;57119;52.516;13.508;2022-12-07T15:30:41;3.29;94.67
69823;SHT31;57119;52.516;13.508;2022-12-07T15:33:14;3.26;94.82
69823;SHT31;57119;52.516;13.508;2022-12-07T15:35:43;3.23;94.70
69823;SHT31;57119;52.516;13.508;2022-12-07T15:38:09;3.25;94.58
69823;SHT31;57119;52.516;13.508;2022-12-07T15:40:35;3.25;94.18
69823;SHT31;57119;52.516;13.508;2022-12-07T15:43:01;3.23;94.28
69823;SHT31;57119;52.516;13.508;2022-12-07T15:45:27;3.30;94.06
69823;SHT31;57119;52.516;13.508;2022-12-07T15:47:55;3.25;94.13
69823;SHT31;57119;52.516;13.508;2022-12-07T15:50:22;3.27;94.24
69823;SHT31;57119;52.516;13.508;2022-12-07T15:52:50;3.35;94.21
69823;SHT31;57119;52.516;13.508;2022-12-07T15:55:18;3.35;94.30
69823;SHT31;57119;52.516;13.508;2022-12-07T15:57:47;3.42;94.37
69823;SHT31;57119;52.516;13.508;2022-12-07T16:00:14;3.42;94.41
69823;SHT31;57119;52.516;13.508;2022-12-07T16:02:40;3.44;94.43
69823;SHT31;57119;52.516;13.508;2022-12-07T16:05:08;3.44;94.34
69823;SHT31;57119;52.516;13.508;2022-12-07T16:07:34;3.47;94.00
69823;SHT31;57119;52.516;13.508;2022-12-07T16:09:59;3.53;93.27
69823;SHT31;57119;52.516;13.508;2022-12-07T16:12:28;3.50;93.57
69823;SHT31;57119;52.516;13.508;2022-12-07T16:14:53;3.49;93.70
69823;SHT31;57119;52.516;13.508;2022-12-07T16:17:19;3.52;93.25
69823;SHT31;57119;52.516;13.508;2022-12-07T16:19:44;3.52;93.44
69823;SHT31;57119;52.516;13.508;2022-12-07T16:22:13;3.47;93.57
69823;SHT31;57119;52.516;13.508;2022-12-07T16:24:39;3.42;93.63
69823;SHT31;57119;52.516;13.508;2022-12-07T16:27:07;3.33;93.79
69823;SHT31;57119;52.516;13.508;2022-12-07T16:29:32;3.29;94.10
69823;SHT31;57119;52.516;13.508;2022-12-07T16:31:58;3.29;94.16
69823;SHT31;57119;52.516;13.508;2022-12-07T16:34:24;3.29;94.11
69823;SHT31;57119;52.516;13.508;2022-12-07T16:36:53;3.29;93.93
69823;SHT31;57119;52.516;13.508;2022-12-07T16:39:21;3.23;94.06
69823;SHT31;57119;52.516;13.508;2022-12-07T16:41:52;3.18;94.04
69823;SHT31;57119;52.516;13.508;2022-12-07T16:44:18;3.15;94.33
69823;SHT31;57119;52.516;13.508;2022-12-07T16:46:46;3.11;94.58
69823;SHT31;57119;52.516;13.508;2022-12-07T16:49:16;3.09;94.54
69823;SHT31;57119;52.516;13.508;2022-12-07T16:51:45;3.02;94.79
69823;SHT31;57119;52.516;13.508;2022-12-07T16:54:12;2.95;95.15
69823;SHT31;57119;52.516;13.508;2022-12-07T16:56:38;2.89;94.94
69823;SHT31;57119;52.516;13.508;2022-12-07T16:59:04;2.85;95.08
69823;SHT31;57119;52.516;13.508;2022-12-07T17:01:34;2.83;94.72
69823;SHT31;57119;52.516;13.508;2022-12-07T17:04:03;2.78;94.82
69823;SHT31;57119;52.516;13.508;2022-12-07T17:06:32;2.73;94.92
69823;SHT31;57119;52.516;13.508;2022-12-07T17:08:58;2.64;95.14
69823;SHT31;57119;52.516;13.508;2022-12-07T17:11:27;2.62;95.26
69823;SHT31;57119;52.516;13.508;2022-12-07T17:13:53;2.57;95.54
69823;SHT31;57119;52.516;13.508;2022-12-07T17:16:42;2.57;95.48
69823;SHT31;57119;52.516;13.508;2022-12-07T17:19:12;2.51;95.15
69823;SHT31;57119;52.516;13.508;2022-12-07T17:21:42;2.49;95.33
69823;SHT31;57119;52.516;13.508;2022-12-07T17:24:10;2.44;95.29
69823;SHT31;57119;52.516;13.508;2022-12-07T17:26:37;2.46;95.15
69823;SHT31;57119;52.516;13.508;2022-12-07T17:29:04;2.41;95.49
69823;SHT31;57119;52.516;13.508;2022-12-07T17:31:33;2.36;95.62
69823;SHT31;57119;52.516;13.508;2022-12-07T17:34:02;2.34;95.64
69823;SHT31;57119;52.516;13.508;2022-12-07T17:36:29;2.32;95.60
69823;SHT31;57119;52.516;13.508;2022-12-07T17:38:58;2.32;95.58
69823;SHT31;57119;52.516;13.508;2022-12-07T17:41:27;2.29;95.53
69823;SHT31;57119;52.516;13.508;2022-12-07T17:44:14;2.33;95.12
69823;SHT31;57119;52.516;13.508;2022-12-07T17:46:40;2.30;95.32
69823;SHT31;57119;52.516;13.508;2022-12-07T17:49:09;2.28;95.47
69823;SHT31;57119;52.516;13.508;2022-12-07T17:51:35;2.25;95.51
69823;SHT31;57119;52.516;13.508;2022-12-07T17:54:19;2.18;95.54
69823;SHT31;57119;52.516;13.508;2022-12-07T17:56:48;2.09;95.92